createdAt,value
2023-02-01T00:01:19.064Z,96.10
2023-02-01T00:03:24.375Z,96.20
2023-02-01T00:05:29.400Z,96.30
2023-02-01T00:07:34.721Z,96.20
2023-02-01T00:09:40.065Z,96.20
2023-02-01T00:11:45.393Z,95.80
2023-02-01T00:13:53.540Z,95.80
2023-02-01T00:15:58.558Z,95.50
2023-02-01T00:18:03.620Z,95.50
2023-02-01T00:20:10.870Z,95.50
2023-02-01T00:22:16.015Z,95.50
2023-02-01T00:24:21.126Z,95.30
2023-02-01T00:26:34.845Z,95.20
2023-02-01T00:28:39.855Z,95.40
2023-02-01T00:30:47.812Z,95.50
2023-02-01T00:32:52.784Z,95.70
2023-02-01T00:34:58.488Z,95.50
2023-02-01T00:37:03.945Z,95.50
2023-02-01T00:39:09.069Z,95.40
2023-02-01T00:41:19.771Z,95.40
2023-02-01T00:43:25.150Z,95.30
2023-02-01T00:45:30.134Z,94.80
2023-02-01T00:47:38.144Z,94.70
2023-02-01T00:49:43.122Z,94.60
2023-02-01T00:51:48.557Z,94.80
2023-02-01T00:53:54.185Z,95.00
2023-02-01T00:55:59.948Z,94.70
2023-02-01T00:58:07.405Z,94.80
2023-02-01T01:00:14.640Z,94.70
2023-02-01T01:02:19.758Z,94.40
2023-02-01T01:04:28.545Z,94.20
2023-02-01T01:06:36.187Z,94.20
2023-02-01T01:08:43.009Z,94.10
2023-02-01T01:10:47.996Z,94.30
2023-02-01T01:12:54.102Z,94.60
2023-02-01T01:14:59.533Z,94.70
2023-02-01T01:17:04.514Z,94.20
2023-02-01T01:19:09.531Z,94.20
2023-02-01T01:21:19.865Z,94.00
2023-02-01T01:23:24.881Z,94.10
2023-02-01T01:25:29.922Z,94.20
2023-02-01T01:27:34.892Z,94.30
2023-02-01T01:29:40.651Z,94.20
2023-02-01T01:31:46.242Z,94.30
2023-02-01T01:33:56.675Z,94.00
2023-02-01T01:36:01.756Z,94.00
2023-02-01T01:38:09.445Z,93.90
2023-02-01T01:40:16.207Z,94.00
2023-02-01T01:42:21.256Z,94.10
2023-02-01T01:45:04.838Z,93.70
2023-02-01T01:47:13.472Z,94.10
2023-02-01T01:49:24.109Z,94.50
2023-02-01T01:51:32.007Z,94.50
2023-02-01T01:53:46.624Z,94.60
2023-02-01T01:55:54.313Z,94.70
2023-02-01T01:58:07.042Z,94.80
2023-02-01T02:00:16.430Z,95.00
2023-02-01T02:02:23.969Z,95.00
2023-02-01T02:04:29.345Z,94.90
2023-02-01T02:06:49.275Z,94.80
2023-02-01T02:08:56.966Z,94.70
2023-02-01T02:11:04.625Z,94.30
2023-02-01T02:13:09.845Z,94.80
2023-02-01T02:15:18.627Z,94.70
2023-02-01T02:17:37.557Z,94.90
2023-02-01T02:20:32.592Z,95.00
2023-02-01T02:23:14.802Z,94.50
2023-02-01T02:25:45.488Z,94.70
2023-02-01T02:28:03.890Z,94.30
2023-02-01T02:30:41.637Z,94.60
2023-02-01T02:33:41.535Z,94.60
2023-02-01T02:35:55.296Z,95.00
2023-02-01T02:38:15.776Z,95.10
2023-02-01T02:40:30.970Z,95.20
2023-02-01T02:42:58.534Z,94.90
2023-02-01T02:45:24.016Z,94.70
2023-02-01T02:47:37.055Z,94.70
2023-02-01T02:50:15.911Z,94.50
2023-02-01T02:52:37.164Z,94.70
2023-02-01T02:54:50.355Z,95.00
2023-02-01T02:57:13.049Z,95.00
2023-02-01T02:59:38.191Z,94.90
2023-02-01T03:01:57.613Z,95.00
2023-02-01T03:04:09.994Z,94.20
2023-02-01T03:06:22.735Z,94.70
2023-02-01T03:08:29.583Z,94.70
2023-02-01T03:10:55.100Z,94.40
2023-02-01T03:13:06.359Z,94.10
2023-02-01T03:15:16.221Z,93.80
2023-02-01T03:17:28.501Z,94.00
2023-02-01T03:19:39.437Z,94.00
2023-02-01T03:21:51.827Z,94.10
2023-02-01T03:24:00.298Z,93.90
2023-02-01T03:26:07.907Z,93.30
2023-02-01T03:28:15.477Z,93.10
2023-02-01T03:30:26.927Z,92.30
2023-02-01T03:32:52.550Z,92.00
2023-02-01T03:34:58.190Z,90.70
2023-02-01T03:37:10.383Z,90.80
2023-02-01T03:39:23.242Z,91.00
2023-02-01T03:41:39.085Z,90.90
2023-02-01T03:43:57.888Z,91.30
2023-02-01T03:46:09.237Z,90.20
2023-02-01T03:48:17.343Z,89.00
2023-02-01T03:50:26.691Z,88.80
2023-02-01T03:52:41.558Z,89.10
2023-02-01T03:54:48.605Z,90.00
2023-02-01T03:56:58.083Z,90.00
2023-02-01T03:59:04.051Z,89.90
2023-02-01T04:01:13.657Z,90.40
2023-02-01T04:03:19.452Z,90.20
2023-02-01T04:05:26.321Z,91.30
2023-02-01T04:07:41.438Z,91.50
2023-02-01T04:09:46.778Z,91.50
2023-02-01T04:11:52.027Z,88.80
2023-02-01T04:13:57.057Z,88.30
2023-02-01T04:16:02.821Z,89.40
2023-02-01T04:18:08.152Z,89.60
2023-02-01T04:20:14.896Z,90.40
2023-02-01T04:22:20.288Z,90.00
2023-02-01T04:24:27.877Z,90.50
2023-02-01T04:26:33.650Z,90.80
2023-02-01T04:28:38.897Z,91.10
2023-02-01T04:30:44.019Z,90.80
2023-02-01T04:32:49.056Z,90.30
2023-02-01T04:34:54.757Z,90.70
2023-02-01T04:36:59.748Z,91.10
2023-02-01T04:39:05.250Z,91.40
2023-02-01T04:41:13.126Z,91.30
2023-02-01T04:43:18.172Z,91.00
2023-02-01T04:45:23.893Z,90.50
2023-02-01T04:47:28.843Z,90.40
2023-02-01T04:49:34.748Z,90.60
2023-02-01T04:51:41.261Z,91.20
2023-02-01T04:53:46.236Z,91.10
2023-02-01T04:55:53.489Z,90.90
2023-02-01T04:58:01.406Z,91.20
2023-02-01T05:00:08.452Z,90.60
2023-02-01T05:02:14.316Z,90.80
2023-02-01T05:04:19.956Z,90.30
2023-02-01T05:06:25.573Z,90.80
2023-02-01T05:08:31.072Z,90.80
2023-02-01T05:10:37.457Z,90.60
2023-02-01T05:12:54.932Z,90.00
2023-02-01T05:15:02.564Z,90.30
2023-02-01T05:17:07.651Z,90.90
2023-02-01T05:19:12.595Z,91.20
2023-02-01T05:21:18.067Z,90.20
2023-02-01T05:23:23.041Z,90.90
2023-02-01T05:25:28.761Z,89.80
2023-02-01T05:27:35.293Z,90.10
2023-02-01T05:29:40.290Z,90.60
2023-02-01T05:31:49.721Z,90.30
2023-02-01T05:33:54.986Z,90.90
2023-02-01T05:35:59.960Z,90.40
2023-02-01T05:38:05.277Z,90.90
2023-02-01T05:40:12.789Z,91.00
2023-02-01T05:42:17.978Z,90.90
2023-02-01T05:44:23.204Z,90.80
2023-02-01T05:46:28.572Z,90.60
2023-02-01T05:48:36.232Z,90.50
2023-02-01T05:50:42.294Z,90.60
2023-02-01T05:52:49.830Z,90.70
2023-02-01T05:54:54.791Z,90.20
2023-02-01T05:56:59.750Z,90.30
2023-02-01T05:59:04.965Z,90.40
2023-02-01T06:01:10.638Z,90.20
2023-02-01T06:03:15.651Z,90.10
2023-02-01T06:05:23.555Z,90.30
2023-02-01T06:07:29.846Z,90.40
2023-02-01T06:09:35.006Z,90.70
2023-02-01T06:11:41.791Z,90.70
2023-02-01T06:13:46.750Z,90.30
2023-02-01T06:15:52.321Z,89.50
2023-02-01T06:17:57.585Z,89.50
2023-02-01T06:20:03.122Z,89.60
2023-02-01T06:22:10.801Z,89.40
2023-02-01T06:24:16.099Z,89.90
2023-02-01T06:26:21.210Z,88.70
2023-02-01T06:28:26.892Z,88.20
2023-02-01T06:30:32.050Z,88.00
2023-02-01T06:32:37.968Z,87.80
2023-02-01T06:34:43.324Z,88.50
2023-02-01T06:36:48.396Z,88.50
2023-02-01T06:38:57.511Z,88.50
2023-02-01T06:41:05.572Z,88.70
2023-02-01T06:43:10.542Z,89.00
2023-02-01T06:45:15.522Z,89.20
2023-02-01T06:47:20.473Z,89.30
2023-02-01T06:49:26.331Z,88.90
2023-02-01T06:51:32.298Z,89.00
2023-02-01T06:53:37.874Z,88.60
2023-02-01T06:55:45.836Z,89.00
2023-02-01T06:57:50.857Z,88.60
2023-02-01T06:59:55.933Z,88.00
2023-02-01T07:02:01.457Z,88.20
2023-02-01T07:04:07.013Z,88.10
2023-02-01T07:06:13.640Z,87.90
2023-02-01T07:08:18.760Z,87.00
2023-02-01T07:10:24.080Z,87.00
2023-02-01T07:12:32.421Z,86.60
2023-02-01T07:14:37.490Z,87.10
2023-02-01T07:16:43.319Z,86.80
2023-02-01T07:18:48.445Z,87.70
2023-02-01T07:20:55.412Z,87.40
2023-02-01T07:23:01.152Z,87.50
2023-02-01T07:25:07.057Z,87.20
2023-02-01T07:27:12.675Z,87.30
2023-02-01T07:29:22.392Z,86.30
2023-02-01T07:31:30.008Z,86.30
2023-02-01T07:33:37.023Z,85.30
2023-02-01T07:35:42.049Z,85.10
2023-02-01T07:37:47.050Z,84.80
2023-02-01T07:39:52.032Z,84.60
2023-02-01T07:41:57.728Z,85.80
2023-02-01T07:44:02.716Z,85.20
2023-02-01T07:46:11.522Z,84.90
2023-02-01T07:48:16.525Z,83.90
2023-02-01T07:50:22.326Z,84.70
2023-02-01T07:52:27.930Z,83.40
2023-02-01T07:54:33.341Z,83.20
2023-02-01T07:56:38.416Z,83.90
2023-02-01T07:58:43.984Z,84.10
2023-02-01T08:01:01.536Z,84.20
2023-02-01T08:03:13.275Z,84.10
2023-02-01T08:05:18.742Z,84.80
2023-02-01T08:07:23.794Z,84.10
2023-02-01T08:09:28.980Z,84.40
2023-02-01T08:11:37.840Z,83.50
2023-02-01T08:13:45.193Z,84.20
2023-02-01T08:15:51.725Z,83.40
2023-02-01T08:17:59.848Z,84.20
2023-02-01T08:20:11.299Z,83.80
2023-02-01T08:22:18.786Z,83.80
2023-02-01T08:24:25.643Z,83.40
2023-02-01T08:26:30.854Z,83.50
2023-02-01T08:28:37.851Z,83.30
2023-02-01T08:30:43.835Z,83.00
2023-02-01T08:32:48.954Z,83.00
2023-02-01T08:34:53.951Z,83.10
2023-02-01T08:37:01.625Z,82.80
2023-02-01T08:39:10.095Z,83.60
2023-02-01T08:41:17.725Z,82.60
2023-02-01T08:43:23.035Z,83.00
2023-02-01T08:45:31.186Z,83.20
2023-02-01T08:47:36.187Z,83.20
2023-02-01T08:49:41.708Z,83.70
2023-02-01T08:51:47.257Z,83.20
2023-02-01T08:53:55.371Z,84.40
2023-02-01T08:56:00.594Z,84.70
2023-02-01T08:58:05.557Z,84.80
2023-02-01T09:00:14.994Z,83.80
2023-02-01T09:02:22.832Z,84.80
2023-02-01T09:04:28.269Z,84.50
2023-02-01T09:06:33.454Z,86.50
2023-02-01T09:08:39.775Z,86.50
2023-02-01T09:10:47.813Z,86.50
2023-02-01T09:12:53.092Z,86.40
2023-02-01T09:15:00.391Z,85.90
2023-02-01T09:17:06.400Z,86.60
2023-02-01T09:19:27.412Z,85.90
2023-02-01T09:21:33.403Z,84.80
2023-02-01T09:23:39.354Z,85.00
2023-02-01T09:25:49.994Z,85.30
2023-02-01T09:27:55.549Z,84.20
2023-02-01T09:30:00.583Z,84.90
2023-02-01T09:32:07.720Z,84.90
2023-02-01T09:34:13.377Z,84.80
2023-02-01T09:36:20.704Z,84.30
2023-02-01T09:38:26.914Z,84.70
2023-02-01T09:40:32.383Z,85.00
2023-02-01T09:43:15.359Z,86.20
2023-02-01T09:45:30.163Z,87.50
2023-02-01T09:47:35.979Z,88.10
2023-02-01T09:49:53.803Z,86.60
2023-02-01T09:52:00.763Z,86.70
2023-02-01T09:54:12.825Z,87.00
2023-02-01T09:56:24.978Z,85.70
2023-02-01T09:58:39.314Z,85.10
2023-02-01T10:00:48.280Z,84.50
2023-02-01T10:02:54.825Z,85.30
2023-02-01T10:05:04.199Z,84.50
2023-02-01T10:07:25.105Z,85.40
2023-02-01T10:09:47.872Z,85.60
2023-02-01T10:12:22.088Z,86.60
2023-02-01T10:14:50.567Z,87.00
2023-02-01T10:17:04.032Z,88.00
2023-02-01T10:19:32.881Z,86.40
2023-02-01T10:21:57.570Z,86.00
2023-02-01T10:24:18.491Z,84.90
2023-02-01T10:26:27.056Z,84.80
2023-02-01T10:28:32.064Z,85.00
2023-02-01T10:30:47.502Z,84.50
2023-02-01T10:32:59.363Z,85.00
2023-02-01T10:35:12.436Z,85.30
2023-02-01T10:37:30.897Z,84.90
2023-02-01T10:39:36.202Z,84.90
2023-02-01T10:41:44.250Z,84.80
2023-02-01T10:43:53.722Z,84.60
2023-02-01T10:46:01.970Z,84.90
2023-02-01T10:48:08.253Z,84.00
2023-02-01T10:50:28.092Z,83.50
2023-02-01T10:52:45.112Z,83.80
2023-02-01T10:54:50.371Z,83.90
2023-02-01T10:56:55.288Z,83.40
2023-02-01T10:59:06.274Z,83.60
2023-02-01T11:01:21.757Z,83.90
2023-02-01T11:03:42.563Z,83.70
2023-02-01T11:05:49.611Z,83.10
2023-02-01T11:08:01.581Z,82.80
2023-02-01T11:10:07.661Z,83.40
2023-02-01T11:12:34.724Z,83.40
2023-02-01T11:14:43.738Z,83.00
2023-02-01T11:16:56.933Z,82.70
2023-02-01T11:19:01.931Z,83.70
2023-02-01T11:21:09.760Z,82.00
2023-02-01T11:23:21.017Z,82.80
2023-02-01T11:25:27.258Z,82.70
2023-02-01T11:27:33.410Z,82.30
2023-02-01T11:29:43.774Z,82.80
2023-02-01T11:31:53.551Z,83.10
2023-02-01T11:34:04.238Z,83.20
2023-02-01T11:36:12.670Z,82.50
2023-02-01T11:38:30.124Z,82.80
2023-02-01T11:40:40.683Z,83.60
2023-02-01T11:42:58.713Z,82.90
2023-02-01T11:45:23.441Z,83.00
2023-02-01T11:47:34.491Z,80.90
2023-02-01T11:49:39.860Z,81.60
2023-02-01T11:51:58.809Z,81.80
2023-02-01T11:54:39.236Z,82.80
2023-02-01T11:57:00.235Z,82.20
2023-02-01T11:59:38.873Z,82.70
2023-02-01T12:02:16.618Z,81.90
2023-02-01T12:05:01.508Z,81.50
2023-02-01T12:07:17.834Z,81.30
2023-02-01T12:09:50.932Z,81.00
2023-02-01T12:12:07.236Z,80.40
2023-02-01T12:14:35.287Z,81.60
2023-02-01T12:16:55.825Z,80.90
2023-02-01T12:19:24.886Z,80.70
2023-02-01T12:21:58.858Z,80.80
2023-02-01T12:24:27.739Z,80.60
2023-02-01T12:26:51.347Z,80.60
2023-02-01T12:29:24.544Z,80.00
2023-02-01T12:32:01.158Z,80.00
2023-02-01T12:34:40.721Z,79.70
2023-02-01T12:36:57.104Z,79.20
2023-02-01T12:39:14.359Z,79.40
2023-02-01T12:41:50.632Z,79.80
2023-02-01T12:44:00.281Z,80.10
2023-02-01T12:46:10.883Z,79.30
2023-02-01T12:48:31.819Z,80.10
2023-02-01T12:50:47.293Z,80.30
2023-02-01T12:52:57.913Z,80.00
2023-02-01T12:55:12.080Z,80.40
2023-02-01T12:57:23.730Z,79.60
2023-02-01T12:59:36.163Z,78.90
2023-02-01T13:01:48.390Z,79.50
2023-02-01T13:04:06.971Z,79.60
2023-02-01T13:06:19.606Z,79.40
2023-02-01T13:08:35.183Z,80.00
2023-02-01T13:10:47.070Z,79.20
2023-02-01T13:13:01.598Z,80.00
2023-02-01T13:15:17.818Z,79.30
2023-02-01T13:17:29.412Z,79.70
2023-02-01T13:19:48.275Z,78.70
2023-02-01T13:22:00.944Z,78.80
2023-02-01T13:24:18.662Z,78.50
2023-02-01T13:26:24.217Z,78.90
2023-02-01T13:28:33.122Z,79.00
2023-02-01T13:31:04.346Z,78.60
2023-02-01T13:33:53.513Z,78.60
2023-02-01T13:36:32.214Z,78.50
2023-02-01T13:39:07.961Z,78.90
2023-02-01T13:41:31.357Z,78.10
2023-02-01T13:43:40.063Z,77.20
2023-02-01T13:45:53.462Z,77.60
2023-02-01T13:48:00.097Z,78.20
2023-02-01T13:50:17.239Z,78.20
2023-02-01T13:52:35.926Z,78.20
2023-02-01T13:54:44.107Z,78.40
2023-02-01T13:56:52.098Z,79.40
2023-02-01T13:58:58.789Z,78.60
2023-02-01T14:01:48.647Z,79.20
2023-02-01T14:03:56.052Z,78.60
2023-02-01T14:06:19.268Z,79.30
2023-02-01T14:08:42.719Z,79.10
2023-02-01T14:10:59.548Z,79.10
2023-02-01T14:13:25.665Z,80.00
2023-02-01T14:15:32.329Z,79.60
2023-02-01T14:17:39.694Z,79.00
2023-02-01T14:19:45.342Z,78.40
2023-02-01T14:21:58.024Z,79.50
2023-02-01T14:24:08.791Z,78.90
2023-02-01T14:26:24.555Z,79.00
2023-02-01T14:28:34.825Z,79.30
2023-02-01T14:30:40.826Z,77.90
2023-02-01T14:32:47.811Z,78.90
2023-02-01T14:35:00.437Z,77.50
2023-02-01T14:37:10.142Z,79.40
2023-02-01T14:40:02.165Z,78.80
2023-02-01T14:42:23.654Z,78.50
2023-02-01T14:44:40.395Z,78.70
2023-02-01T14:47:34.931Z,78.90
2023-02-01T14:49:53.756Z,79.00
2023-02-01T14:52:02.036Z,78.30
2023-02-01T14:54:07.979Z,78.80
2023-02-01T14:56:21.478Z,78.40
2023-02-01T14:58:43.705Z,78.50
2023-02-01T15:00:57.961Z,78.60
2023-02-01T15:03:29.265Z,78.80
2023-02-01T15:05:37.093Z,79.00
2023-02-01T15:07:42.624Z,78.90
2023-02-01T15:09:51.881Z,78.70
2023-02-01T15:12:07.139Z,78.10
2023-02-01T15:14:18.618Z,78.50
2023-02-01T15:16:29.279Z,77.90
2023-02-01T15:18:35.047Z,77.60
2023-02-01T15:20:40.618Z,78.40
2023-02-01T15:23:08.906Z,78.40
2023-02-01T15:25:25.718Z,78.50
2023-02-01T15:29:41.133Z,78.40
2023-02-01T15:31:52.153Z,78.70
2023-02-01T15:34:01.781Z,78.20
2023-02-01T15:36:23.890Z,78.90
2023-02-01T15:38:43.138Z,78.90
2023-02-01T15:40:59.908Z,77.80
2023-02-01T15:43:06.025Z,79.10
2023-02-01T15:45:21.833Z,78.40
2023-02-01T15:47:33.977Z,78.50
2023-02-01T15:49:45.994Z,78.40
2023-02-01T15:51:53.053Z,78.60
2023-02-01T15:54:02.751Z,79.20
2023-02-01T15:56:10.481Z,79.10
2023-02-01T15:58:23.026Z,78.90
2023-02-01T16:00:35.002Z,79.30
2023-02-01T16:02:55.575Z,79.40
2023-02-01T16:05:01.412Z,79.90
2023-02-01T16:07:26.730Z,79.40
2023-02-01T16:09:42.814Z,79.40
2023-02-01T16:11:59.333Z,79.50
2023-02-01T16:14:05.483Z,80.20
2023-02-01T16:16:15.308Z,80.70
2023-02-01T16:18:23.609Z,81.00
2023-02-01T16:20:29.062Z,81.10
2023-02-01T16:22:34.670Z,81.50
2023-02-01T16:24:40.340Z,81.50
2023-02-01T16:26:45.838Z,82.10
2023-02-01T16:28:51.807Z,83.00
2023-02-01T16:30:57.109Z,83.10
2023-02-01T16:33:06.317Z,83.20
2023-02-01T16:35:25.883Z,82.90
2023-02-01T16:37:33.519Z,82.70
2023-02-01T16:39:39.106Z,82.80
2023-02-01T16:41:46.341Z,82.30
2023-02-01T16:43:55.342Z,83.10
2023-02-01T16:46:05.653Z,83.10
2023-02-01T16:48:11.114Z,82.70
2023-02-01T16:50:25.024Z,83.30
2023-02-01T16:52:30.898Z,83.20
2023-02-01T16:54:36.768Z,83.50
2023-02-01T16:56:45.056Z,83.40
2023-02-01T16:58:51.025Z,83.20
2023-02-01T17:00:57.038Z,83.10
2023-02-01T17:03:01.982Z,83.40
2023-02-01T17:05:08.188Z,83.80
2023-02-01T17:07:19.701Z,83.80
2023-02-01T17:09:26.606Z,83.40
2023-02-01T17:11:32.537Z,83.40
2023-02-01T17:13:38.431Z,83.50
2023-02-01T17:15:46.291Z,83.10
2023-02-01T17:17:55.094Z,83.30
2023-02-01T17:20:00.760Z,83.30
2023-02-01T17:22:06.103Z,82.70
2023-02-01T17:24:16.168Z,82.90
2023-02-01T17:26:21.050Z,83.40
2023-02-01T17:28:27.225Z,82.80
2023-02-01T17:30:32.637Z,83.40
2023-02-01T17:32:37.974Z,83.20
2023-02-01T17:34:43.173Z,83.00
2023-02-01T17:36:50.165Z,83.10
2023-02-01T17:39:05.287Z,83.80
2023-02-01T17:41:15.062Z,84.00
2023-02-01T17:43:25.472Z,84.20
2023-02-01T17:45:40.652Z,84.10
2023-02-01T17:47:47.793Z,83.80
2023-02-01T17:49:56.758Z,84.20
2023-02-01T17:52:01.833Z,84.40
2023-02-01T17:54:07.410Z,83.30
2023-02-01T17:56:18.363Z,83.70
2023-02-01T17:58:23.940Z,83.30
2023-02-01T18:00:29.434Z,83.90
2023-02-01T18:02:35.083Z,83.70
2023-02-01T18:04:40.419Z,83.90
2023-02-01T18:06:45.669Z,84.10
2023-02-01T18:08:52.214Z,84.30
2023-02-01T18:11:01.885Z,84.00
2023-02-01T18:13:09.341Z,83.00
2023-02-01T18:15:24.720Z,83.30
2023-02-01T18:17:29.712Z,83.30
2023-02-01T18:19:35.070Z,82.80
2023-02-01T18:21:44.270Z,82.80
2023-02-01T18:23:49.636Z,82.70
2023-02-01T18:25:55.748Z,82.70
2023-02-01T18:28:00.788Z,82.70
2023-02-01T18:30:09.982Z,82.60
2023-02-01T18:32:14.884Z,82.80
2023-02-01T18:34:22.551Z,82.80
2023-02-01T18:36:30.472Z,83.10
2023-02-01T18:38:35.748Z,83.00
2023-02-01T18:40:57.666Z,82.60
2023-02-01T18:43:02.800Z,83.60
2023-02-01T18:45:29.774Z,83.90
2023-02-01T18:47:34.670Z,84.30
2023-02-01T18:49:39.548Z,84.90
2023-02-01T18:51:45.200Z,85.30
2023-02-01T18:53:51.651Z,85.80
2023-02-01T18:55:57.581Z,86.70
2023-02-01T18:58:03.331Z,87.70
2023-02-01T19:00:14.227Z,88.40
2023-02-01T19:02:19.462Z,88.20
2023-02-01T19:04:26.092Z,88.20
2023-02-01T19:06:32.643Z,87.90
2023-02-01T19:08:37.947Z,87.80
2023-02-01T19:10:45.505Z,88.00
2023-02-01T19:12:50.689Z,88.20
2023-02-01T19:14:55.575Z,87.60
2023-02-01T19:17:03.163Z,87.60
2023-02-01T19:19:09.169Z,87.20
2023-02-01T19:21:16.055Z,87.10
2023-02-01T19:23:21.677Z,87.10
2023-02-01T19:25:30.269Z,87.50
2023-02-01T19:27:35.679Z,88.10
2023-02-01T19:29:45.040Z,87.00
2023-02-01T19:31:49.976Z,87.30
2023-02-01T19:33:57.686Z,86.50
2023-02-01T19:36:05.868Z,86.50
2023-02-01T19:38:11.453Z,86.30
2023-02-01T19:40:19.973Z,86.10
2023-02-01T19:42:24.886Z,86.50
2023-02-01T19:44:32.493Z,86.60
2023-02-01T19:46:38.534Z,86.60
2023-02-01T19:48:43.504Z,86.30
2023-02-01T19:50:51.234Z,86.10
2023-02-01T19:52:56.401Z,86.00
2023-02-01T19:55:01.289Z,86.40
2023-02-01T19:57:06.730Z,86.20
2023-02-01T19:59:11.680Z,85.80
2023-02-01T20:01:16.854Z,86.10
2023-02-01T20:03:21.841Z,86.50
2023-02-01T20:05:26.761Z,87.60
2023-02-01T20:07:34.212Z,89.30
2023-02-01T20:09:41.125Z,90.10
2023-02-01T20:11:46.409Z,91.60
2023-02-01T20:13:52.573Z,91.60
2023-02-01T20:16:01.277Z,91.90
2023-02-01T20:18:06.839Z,90.60
2023-02-01T20:20:15.436Z,91.30
2023-02-01T20:22:20.332Z,91.90
2023-02-01T20:24:28.527Z,92.20
2023-02-01T20:26:34.805Z,92.10
2023-02-01T20:28:39.727Z,91.30
2023-02-01T20:30:47.886Z,90.70
2023-02-01T20:32:54.124Z,91.80
2023-02-01T20:34:59.552Z,91.70
2023-02-01T20:37:04.541Z,91.70
2023-02-01T20:39:09.432Z,91.80
2023-02-01T20:41:16.979Z,91.80
2023-02-01T20:43:21.869Z,92.50
2023-02-01T20:45:27.190Z,93.50
2023-02-01T20:47:32.595Z,94.10
2023-02-01T20:49:40.737Z,93.80
2023-02-01T20:51:47.245Z,94.50
2023-02-01T20:53:55.118Z,94.70
2023-02-01T20:56:01.552Z,94.70
2023-02-01T20:58:10.448Z,94.60
2023-02-01T21:00:18.995Z,95.70
2023-02-01T21:02:23.978Z,96.20
2023-02-01T21:04:30.587Z,96.60
2023-02-01T21:06:35.476Z,96.90
2023-02-01T21:08:41.442Z,97.00
2023-02-01T21:10:46.775Z,97.10
2023-02-01T21:13:03.879Z,97.10
2023-02-01T21:15:13.671Z,97.10
2023-02-01T21:17:18.591Z,97.30
2023-02-01T21:19:28.697Z,97.30
2023-02-01T21:21:33.889Z,97.40
2023-02-01T21:23:45.031Z,97.50
2023-02-01T21:25:50.207Z,97.40
2023-02-01T21:27:58.581Z,97.20
2023-02-01T21:30:03.443Z,97.10
2023-02-01T21:32:13.264Z,97.00
2023-02-01T21:34:18.537Z,97.00
2023-02-01T21:36:23.499Z,97.20
2023-02-01T21:38:29.051Z,97.20
2023-02-01T21:40:34.173Z,97.20
2023-02-01T21:42:37.997Z,97.20
2023-02-01T21:44:43.570Z,97.20
2023-02-01T21:46:48.977Z,97.20
2023-02-01T21:49:04.345Z,97.20
2023-02-01T21:51:15.921Z,97.20
2023-02-01T21:53:20.801Z,97.20
2023-02-01T21:55:26.809Z,97.30
2023-02-01T21:57:32.286Z,97.40
2023-02-01T21:59:37.933Z,97.40
2023-02-01T22:01:43.872Z,97.30
2023-02-01T22:03:49.174Z,97.30
2023-02-01T22:05:56.641Z,97.20
2023-02-01T22:08:01.502Z,97.20
2023-02-01T22:10:07.803Z,97.40
2023-02-01T22:12:15.207Z,97.40
2023-02-01T22:14:21.085Z,97.30
2023-02-01T22:16:26.756Z,97.30
2023-02-01T22:18:33.253Z,97.30
2023-02-01T22:20:39.674Z,97.40
2023-02-01T22:22:49.975Z,97.30
2023-02-01T22:24:54.839Z,97.40
2023-02-01T22:27:14.411Z,97.40
2023-02-01T22:29:20.008Z,97.30
2023-02-01T22:31:26.048Z,97.40
2023-02-01T22:33:31.611Z,97.40
2023-02-01T22:35:37.437Z,97.00
2023-02-01T22:37:44.387Z,97.10
2023-02-01T22:39:52.287Z,96.90
2023-02-01T22:41:57.146Z,96.70
2023-02-01T22:44:04.662Z,96.50
2023-02-01T22:46:17.100Z,96.70
2023-02-01T22:48:22.366Z,96.70
2023-02-01T22:50:27.800Z,96.00
2023-02-01T22:52:32.865Z,96.40
2023-02-01T22:54:38.504Z,96.50
2023-02-01T22:56:46.729Z,96.40
2023-02-01T22:58:52.014Z,96.30
2023-02-01T23:00:57.028Z,96.00
2023-02-01T23:03:02.059Z,95.40
2023-02-01T23:05:07.286Z,95.90
2023-02-01T23:07:12.565Z,96.20
2023-02-01T23:09:20.893Z,96.30
2023-02-01T23:11:26.836Z,96.30
2023-02-01T23:13:35.637Z,96.00
2023-02-01T23:15:41.889Z,96.10
2023-02-01T23:17:48.016Z,96.00
2023-02-01T23:19:53.044Z,96.10
2023-02-01T23:21:57.923Z,96.50
2023-02-01T23:24:07.361Z,96.30
2023-02-01T23:26:12.252Z,96.00
2023-02-01T23:28:17.767Z,96.20
2023-02-01T23:30:25.762Z,96.00
2023-02-01T23:32:30.949Z,96.40
2023-02-01T23:34:36.017Z,96.60
2023-02-01T23:36:41.505Z,96.50
2023-02-01T23:38:47.986Z,96.60
2023-02-01T23:40:54.760Z,96.70
2023-02-01T23:43:12.670Z,96.70
2023-02-01T23:45:17.773Z,96.80
2023-02-01T23:47:25.702Z,96.80
2023-02-01T23:49:30.861Z,96.90
2023-02-01T23:51:36.584Z,96.80
2023-02-01T23:53:41.649Z,97.00
2023-02-01T23:55:46.803Z,96.90
2023-02-01T23:57:52.381Z,96.90
2023-02-01T23:59:57.272Z,96.80
